sensor_id;sensor_type;location;lat;lon;timestamp;pressure;altitude;pressure_sealevel;temperature;humidity
20119;BME280;10220;42.716;23.306;2022-07-29T00:00:14;95368.81;;;21.68;100.00
20119;BME280;10220;42.716;23.306;2022-07-29T00:02:39;95391.72;;;21.92;100.00
20119;BME280;10220;42.716;23.306;2022-07-29T00:05:05;95362.69;;;21.97;100.00
20119;BME280;10220;42.716;23.306;2022-07-29T00:07:31;95403.03;;;22.28;100.00
20119;BME280;10220;42.716;23.306;2022-07-29T00:09:56;95361.88;;;21.97;100.00
20119;BME280;10220;42.716;23.306;2022-07-29T00:12:24;95412.25;;;22.20;100.00
20119;BME280;10220;42.716;23.306;2022-07-29T00:14:49;95410.38;;;22.41;100.00
20119;BME280;10220;42.716;23.306;2022-07-29T00:17:15;95413.66;;;21.68;100.00
20119;BME280;10220;42.716;23.306;2022-07-29T00:19:40;95405.75;;;21.68;100.00
20119;BME280;10220;42.716;23.306;2022-07-29T00:22:06;95403.88;;;21.93;100.00
20119;BME280;10220;42.716;23.306;2022-07-29T00:24:32;95412.81;;;22.12;100.00
20119;BME280;10220;42.716;23.306;2022-07-29T00:26:57;95399.88;;;22.16;100.00
20119;BME280;10220;42.716;23.306;2022-07-29T00:29:22;95413.84;;;22.11;100.00
20119;BME280;10220;42.716;23.306;2022-07-29T00:31:48;95411.47;;;22.20;100.00
20119;BME280;10220;42.716;23.306;2022-07-29T00:34:13;95404.66;;;22.04;100.00
20119;BME280;10220;42.716;23.306;2022-07-29T00:36:57;95412.59;;;21.79;100.00
20119;BME280;10220;42.716;23.306;2022-07-29T00:39:23;95410.50;;;21.61;100.00
20119;BME280;10220;42.716;23.306;2022-07-29T00:41:49;95394.66;;;21.41;100.00
20119;BME280;10220;42.716;23.306;2022-07-29T00:44:14;95422.31;;;21.09;100.00
20119;BME280;10220;42.716;23.306;2022-07-29T00:46:40;95404.66;;;21.15;100.00
20119;BME280;10220;42.716;23.306;2022-07-29T00:49:05;95404.41;;;21.26;100.00
20119;BME280;10220;42.716;23.306;2022-07-29T00:51:35;95407.53;;;21.03;100.00
20119;BME280;10220;42.716;23.306;2022-07-29T00:54:02;95414.91;;;20.96;100.00
20119;BME280;10220;42.716;23.306;2022-07-29T00:56:30;95427.75;;;20.27;100.00
20119;BME280;10220;42.716;23.306;2022-07-29T00:58:56;95402.88;;;19.98;100.00
20119;BME280;10220;42.716;23.306;2022-07-29T01:01:21;95416.88;;;20.08;100.00
20119;BME280;10220;42.716;23.306;2022-07-29T01:03:47;95401.53;;;19.91;100.00
20119;BME280;10220;42.716;23.306;2022-07-29T01:06:12;95396.06;;;19.97;100.00
20119;BME280;10220;42.716;23.306;2022-07-29T01:08:39;95401.44;;;19.81;100.00
20119;BME280;10220;42.716;23.306;2022-07-29T01:11:05;95402.72;;;19.78;100.00
20119;BME280;10220;42.716;23.306;2022-07-29T01:13:30;95313.09;;;19.07;100.00
20119;BME280;10220;42.716;23.306;2022-07-29T01:16:05;95382.59;;;19.94;100.00
20119;BME280;10220;42.716;23.306;2022-07-29T01:18:34;95353.16;;;19.97;100.00
20119;BME280;10220;42.716;23.306;2022-07-29T01:29:30;95376.31;;;20.00;100.00
20119;BME280;10220;42.716;23.306;2022-07-29T01:37:41;95377.75;;;20.22;100.00
20119;BME280;10220;42.716;23.306;2022-07-29T01:40:14;95369.75;;;20.68;100.00
20119;BME280;10220;42.716;23.306;2022-07-29T01:42:43;95374.03;;;20.74;100.00
20119;BME280;10220;42.716;23.306;2022-07-29T01:45:15;95369.81;;;20.93;100.00
20119;BME280;10220;42.716;23.306;2022-07-29T01:48:37;95386.47;;;21.08;100.00
20119;BME280;10220;42.716;23.306;2022-07-29T01:50:48;95367.50;;;21.06;100.00
20119;BME280;10220;42.716;23.306;2022-07-29T01:53:21;95369.56;;;20.99;100.00
20119;BME280;10220;42.716;23.306;2022-07-29T01:55:48;95368.91;;;20.53;100.00
20119;BME280;10220;42.716;23.306;2022-07-29T01:58:17;95369.41;;;20.45;100.00
20119;BME280;10220;42.716;23.306;2022-07-29T02:00:45;95351.56;;;20.52;100.00
20119;BME280;10220;42.716;23.306;2022-07-29T02:03:12;95369.75;;;20.68;100.00
20119;BME280;10220;42.716;23.306;2022-07-29T02:05:41;95353.50;;;21.25;100.00
20119;BME280;10220;42.716;23.306;2022-07-29T02:08:08;95355.88;;;21.17;100.00
20119;BME280;10220;42.716;23.306;2022-07-29T02:10:35;95363.22;;;20.75;100.00
20119;BME280;10220;42.716;23.306;2022-07-29T02:13:03;95347.78;;;20.33;100.00
20119;BME280;10220;42.716;23.306;2022-07-29T02:15:32;95352.56;;;20.46;100.00
20119;BME280;10220;42.716;23.306;2022-07-29T02:18:07;95345.06;;;20.79;100.00
20119;BME280;10220;42.716;23.306;2022-07-29T02:20:34;95325.72;;;20.54;100.00
20119;BME280;10220;42.716;23.306;2022-07-29T02:23:01;95361.78;;;20.48;100.00
20119;BME280;10220;42.716;23.306;2022-07-29T02:25:29;95331.47;;;20.36;100.00
20119;BME280;10220;42.716;23.306;2022-07-29T02:27:55;95352.47;;;19.75;100.00
20119;BME280;10220;42.716;23.306;2022-07-29T02:30:22;95327.72;;;19.71;100.00
20119;BME280;10220;42.716;23.306;2022-07-29T02:32:49;95349.59;;;19.76;100.00
20119;BME280;10220;42.716;23.306;2022-07-29T02:35:16;95339.19;;;20.62;100.00
20119;BME280;10220;42.716;23.306;2022-07-29T02:37:44;95328.19;;;20.85;100.00
20119;BME280;10220;42.716;23.306;2022-07-29T02:40:31;95335.06;;;21.01;100.00
20119;BME280;10220;42.716;23.306;2022-07-29T02:42:57;95330.78;;;20.65;100.00
20119;BME280;10220;42.716;23.306;2022-07-29T02:45:23;95342.56;;;20.43;100.00
20119;BME280;10220;42.716;23.306;2022-07-29T02:47:49;95327.41;;;20.08;100.00
20119;BME280;10220;42.716;23.306;2022-07-29T02:50:21;95343.31;;;20.38;100.00
20119;BME280;10220;42.716;23.306;2022-07-29T02:53:12;95333.00;;;20.17;100.00
20119;BME280;10220;42.716;23.306;2022-07-29T02:55:50;95352.75;;;19.78;100.00
20119;BME280;10220;42.716;23.306;2022-07-29T02:58:30;95337.59;;;19.90;100.00
20119;BME280;10220;42.716;23.306;2022-07-29T03:01:00;95339.03;;;20.17;100.00
20119;BME280;10220;42.716;23.306;2022-07-29T03:03:29;95310.16;;;20.37;100.00
20119;BME280;10220;42.716;23.306;2022-07-29T03:05:57;95346.91;;;20.12;100.00
20119;BME280;10220;42.716;23.306;2022-07-29T03:08:26;95338.78;;;20.19;100.00
20119;BME280;10220;42.716;23.306;2022-07-29T03:10:53;95331.47;;;20.26;100.00
20119;BME280;10220;42.716;23.306;2022-07-29T03:13:19;95319.38;;;20.40;100.00
20119;BME280;10220;42.716;23.306;2022-07-29T03:15:45;95328.66;;;20.57;100.00
20119;BME280;10220;42.716;23.306;2022-07-29T03:18:12;95323.09;;;20.54;100.00
20119;BME280;10220;42.716;23.306;2022-07-29T03:20:38;95300.06;;;20.09;100.00
20119;BME280;10220;42.716;23.306;2022-07-29T03:23:04;95335.19;;;20.35;100.00
20119;BME280;10220;42.716;23.306;2022-07-29T03:25:30;95334.28;;;19.68;100.00
20119;BME280;10220;42.716;23.306;2022-07-29T03:27:56;95333.19;;;20.01;100.00
20119;BME280;10220;42.716;23.306;2022-07-29T03:30:22;95337.25;;;20.28;100.00
20119;BME280;10220;42.716;23.306;2022-07-29T03:32:51;95326.22;;;20.41;100.00
20119;BME280;10220;42.716;23.306;2022-07-29T03:35:16;95343.13;;;20.55;100.00
20119;BME280;10220;42.716;23.306;2022-07-29T03:37:43;95342.31;;;20.44;100.00
20119;BME280;10220;42.716;23.306;2022-07-29T03:40:11;95336.81;;;20.61;100.00
20119;BME280;10220;42.716;23.306;2022-07-29T03:42:40;95346.81;;;20.59;100.00
20119;BME280;10220;42.716;23.306;2022-07-29T03:45:10;95345.72;;;20.45;100.00
20119;BME280;10220;42.716;23.306;2022-07-29T03:47:40;95351.88;;;20.04;100.00
20119;BME280;10220;42.716;23.306;2022-07-29T03:50:10;95346.06;;;20.02;100.00
20119;BME280;10220;42.716;23.306;2022-07-29T03:52:37;95349.50;;;20.68;100.00
20119;BME280;10220;42.716;23.306;2022-07-29T03:55:03;95350.41;;;20.33;100.00
20119;BME280;10220;42.716;23.306;2022-07-29T03:57:30;95365.94;;;20.29;100.00
20119;BME280;10220;42.716;23.306;2022-07-29T03:59:57;95353.03;;;20.28;100.00
20119;BME280;10220;42.716;23.306;2022-07-29T04:02:24;95322.00;;;20.30;100.00
20119;BME280;10220;42.716;23.306;2022-07-29T04:04:50;95370.06;;;20.81;100.00
20119;BME280;10220;42.716;23.306;2022-07-29T04:07:16;95338.19;;;20.73;100.00
20119;BME280;10220;42.716;23.306;2022-07-29T04:09:42;95372.75;;;21.06;100.00
20119;BME280;10220;42.716;23.306;2022-07-29T04:12:07;95347.97;;;21.57;100.00
20119;BME280;10220;42.716;23.306;2022-07-29T04:14:34;95370.06;;;22.00;100.00
20119;BME280;10220;42.716;23.306;2022-07-29T04:17:18;95354.56;;;21.20;100.00
20119;BME280;10220;42.716;23.306;2022-07-29T04:19:43;95340.06;;;21.17;100.00
20119;BME280;10220;42.716;23.306;2022-07-29T04:22:08;95354.31;;;21.01;100.00
20119;BME280;10220;42.716;23.306;2022-07-29T04:24:34;95352.16;;;20.83;100.00
20119;BME280;10220;42.716;23.306;2022-07-29T04:26:59;95358.50;;;21.07;100.00
20119;BME280;10220;42.716;23.306;2022-07-29T04:29:25;95355.38;;;21.30;100.00
20119;BME280;10220;42.716;23.306;2022-07-29T04:31:50;95348.50;;;21.19;100.00
20119;BME280;10220;42.716;23.306;2022-07-29T04:34:16;95317.69;;;21.00;100.00
20119;BME280;10220;42.716;23.306;2022-07-29T04:36:41;95359.06;;;21.44;100.00
20119;BME280;10220;42.716;23.306;2022-07-29T04:39:06;95380.94;;;21.64;100.00
20119;BME280;10220;42.716;23.306;2022-07-29T04:41:32;95372.50;;;21.82;100.00
20119;BME280;10220;42.716;23.306;2022-07-29T04:43:57;95360.81;;;22.08;100.00
20119;BME280;10220;42.716;23.306;2022-07-29T04:46:25;95372.84;;;22.48;100.00
20119;BME280;10220;42.716;23.306;2022-07-29T04:48:51;95377.63;;;22.42;100.00
20119;BME280;10220;42.716;23.306;2022-07-29T04:51:16;95372.34;;;22.95;100.00
20119;BME280;10220;42.716;23.306;2022-07-29T04:53:42;95374.69;;;22.96;100.00
20119;BME280;10220;42.716;23.306;2022-07-29T04:56:07;95363.00;;;23.12;100.00
20119;BME280;10220;42.716;23.306;2022-07-29T04:58:36;95371.69;;;23.51;100.00
20119;BME280;10220;42.716;23.306;2022-07-29T05:01:03;95391.97;;;23.93;100.00
20119;BME280;10220;42.716;23.306;2022-07-29T05:03:28;95392.06;;;24.35;100.00
20119;BME280;10220;42.716;23.306;2022-07-29T05:05:54;95384.84;;;25.05;100.00
20119;BME280;10220;42.716;23.306;2022-07-29T05:08:19;95370.25;;;24.84;100.00
20119;BME280;10220;42.716;23.306;2022-07-29T05:10:45;95382.09;;;25.29;100.00
20119;BME280;10220;42.716;23.306;2022-07-29T05:13:10;95406.47;;;25.31;100.00
20119;BME280;10220;42.716;23.306;2022-07-29T05:15:36;95395.66;;;25.27;100.00
20119;BME280;10220;42.716;23.306;2022-07-29T05:18:02;95396.06;;;25.34;100.00
20119;BME280;10220;42.716;23.306;2022-07-29T05:20:28;95388.78;;;25.26;100.00
20119;BME280;10220;42.716;23.306;2022-07-29T05:22:59;95401.03;;;25.22;100.00
20119;BME280;10220;42.716;23.306;2022-07-29T05:25:26;95371.66;;;24.59;100.00
20119;BME280;10220;42.716;23.306;2022-07-29T05:27:52;95405.78;;;24.42;100.00
20119;BME280;10220;42.716;23.306;2022-07-29T05:30:20;95399.75;;;23.80;100.00
20119;BME280;10220;42.716;23.306;2022-07-29T05:32:45;95396.69;;;23.96;100.00
20119;BME280;10220;42.716;23.306;2022-07-29T05:35:12;95406.69;;;23.76;100.00
20119;BME280;10220;42.716;23.306;2022-07-29T05:37:38;95400.66;;;23.70;100.00
20119;BME280;10220;42.716;23.306;2022-07-29T05:40:04;95380.00;;;23.67;100.00
20119;BME280;10220;42.716;23.306;2022-07-29T05:42:30;95402.84;;;23.59;100.00
20119;BME280;10220;42.716;23.306;2022-07-29T05:44:55;95366.84;;;22.81;100.00
20119;BME280;10220;42.716;23.306;2022-07-29T05:47:22;95391.03;;;23.46;100.00
20119;BME280;10220;42.716;23.306;2022-07-29T05:49:47;95380.75;;;23.06;100.00
20119;BME280;10220;42.716;23.306;2022-07-29T05:52:14;95417.47;;;23.84;100.00
20119;BME280;10220;42.716;23.306;2022-07-29T05:54:39;95410.63;;;24.58;100.00
20119;BME280;10220;42.716;23.306;2022-07-29T05:57:05;95416.47;;;24.97;100.00
20119;BME280;10220;42.716;23.306;2022-07-29T05:59:34;95405.16;;;25.83;100.00
20119;BME280;10220;42.716;23.306;2022-07-29T06:02:00;95422.38;;;25.86;100.00
20119;BME280;10220;42.716;23.306;2022-07-29T06:04:25;95409.59;;;26.33;100.00
20119;BME280;10220;42.716;23.306;2022-07-29T06:06:51;95427.41;;;26.86;99.51
20119;BME280;10220;42.716;23.306;2022-07-29T06:09:16;95418.06;;;26.62;98.47
20119;BME280;10220;42.716;23.306;2022-07-29T06:11:42;95418.03;;;25.90;100.00
20119;BME280;10220;42.716;23.306;2022-07-29T06:14:07;95357.78;;;26.17;100.00
20119;BME280;10220;42.716;23.306;2022-07-29T06:16:32;95375.63;;;25.85;100.00
20119;BME280;10220;42.716;23.306;2022-07-29T06:18:58;95422.13;;;25.50;100.00
20119;BME280;10220;42.716;23.306;2022-07-29T06:21:23;95421.53;;;24.98;100.00
20119;BME280;10220;42.716;23.306;2022-07-29T06:23:49;95417.66;;;25.28;100.00
20119;BME280;10220;42.716;23.306;2022-07-29T06:26:14;95420.31;;;25.09;100.00
20119;BME280;10220;42.716;23.306;2022-07-29T06:28:40;95424.59;;;24.87;100.00
20119;BME280;10220;42.716;23.306;2022-07-29T06:31:05;95416.25;;;24.75;100.00
20119;BME280;10220;42.716;23.306;2022-07-29T06:33:31;95430.50;;;24.32;100.00
20119;BME280;10220;42.716;23.306;2022-07-29T06:35:56;95425.94;;;24.10;100.00
20119;BME280;10220;42.716;23.306;2022-07-29T06:38:22;95412.28;;;24.26;100.00
20119;BME280;10220;42.716;23.306;2022-07-29T06:40:47;95393.63;;;24.13;100.00
20119;BME280;10220;42.716;23.306;2022-07-29T06:43:29;95416.69;;;24.35;100.00
20119;BME280;10220;42.716;23.306;2022-07-29T06:45:58;95406.06;;;24.64;100.00
20119;BME280;10220;42.716;23.306;2022-07-29T06:48:23;95402.44;;;24.55;100.00
20119;BME280;10220;42.716;23.306;2022-07-29T06:50:49;95425.31;;;24.69;100.00
20119;BME280;10220;42.716;23.306;2022-07-29T06:53:14;95377.25;;;24.57;100.00
20119;BME280;10220;42.716;23.306;2022-07-29T06:55:40;95406.78;;;24.87;100.00
20119;BME280;10220;42.716;23.306;2022-07-29T06:58:05;95403.19;;;24.79;100.00
20119;BME280;10220;42.716;23.306;2022-07-29T07:00:32;95410.44;;;24.91;100.00
20119;BME280;10220;42.716;23.306;2022-07-29T07:02:58;95387.22;;;25.02;100.00
20119;BME280;10220;42.716;23.306;2022-07-29T07:05:23;95405.19;;;25.28;100.00
20119;BME280;10220;42.716;23.306;2022-07-29T07:07:48;95397.97;;;25.65;100.00
20119;BME280;10220;42.716;23.306;2022-07-29T07:10:14;95387.63;;;25.96;100.00
20119;BME280;10220;42.716;23.306;2022-07-29T07:12:40;95394.69;;;26.18;98.52
20119;BME280;10220;42.716;23.306;2022-07-29T07:15:06;95385.19;;;26.44;92.81
20119;BME280;10220;42.716;23.306;2022-07-29T07:17:31;95384.88;;;26.59;89.65
20119;BME280;10220;42.716;23.306;2022-07-29T07:19:57;95401.78;;;26.90;87.65
20119;BME280;10220;42.716;23.306;2022-07-29T07:22:22;95371.22;;;27.14;88.31
20119;BME280;10220;42.716;23.306;2022-07-29T07:24:47;95383.16;;;26.90;85.05
20119;BME280;10220;42.716;23.306;2022-07-29T07:27:13;95355.75;;;27.03;83.71
20119;BME280;10220;42.716;23.306;2022-07-29T07:29:38;95373.91;;;27.58;80.26
20119;BME280;10220;42.716;23.306;2022-07-29T07:32:07;95338.28;;;27.32;80.66
20119;BME280;10220;42.716;23.306;2022-07-29T07:34:32;95385.75;;;27.30;82.12
20119;BME280;10220;42.716;23.306;2022-07-29T07:36:58;95380.75;;;27.50;81.39
20119;BME280;10220;42.716;23.306;2022-07-29T07:39:23;95356.94;;;27.32;82.02
20119;BME280;10220;42.716;23.306;2022-07-29T07:41:49;95378.88;;;27.94;76.23
20119;BME280;10220;42.716;23.306;2022-07-29T07:44:15;95344.94;;;27.86;76.14
20119;BME280;10220;42.716;23.306;2022-07-29T07:46:40;95389.66;;;27.89;75.63
20119;BME280;10220;42.716;23.306;2022-07-29T07:49:06;95386.38;;;27.71;77.82
20119;BME280;10220;42.716;23.306;2022-07-29T07:51:31;95401.72;;;27.65;77.91
20119;BME280;10220;42.716;23.306;2022-07-29T07:53:57;95397.63;;;27.46;81.38
20119;BME280;10220;42.716;23.306;2022-07-29T07:56:22;95389.03;;;27.71;78.28
20119;BME280;10220;42.716;23.306;2022-07-29T07:58:47;95386.81;;;27.64;79.09
20119;BME280;10220;42.716;23.306;2022-07-29T08:01:13;95382.94;;;27.70;81.53
20119;BME280;10220;42.716;23.306;2022-07-29T08:03:38;95383.09;;;27.74;80.43
20119;BME280;10220;42.716;23.306;2022-07-29T08:06:04;95374.31;;;27.95;78.49
20119;BME280;10220;42.716;23.306;2022-07-29T08:08:30;95381.66;;;27.89;78.79
20119;BME280;10220;42.716;23.306;2022-07-29T08:10:55;95380.63;;;28.07;77.36
20119;BME280;10220;42.716;23.306;2022-07-29T08:13:23;95379.88;;;28.07;79.13
20119;BME280;10220;42.716;23.306;2022-07-29T08:15:50;95384.66;;;28.18;76.85
20119;BME280;10220;42.716;23.306;2022-07-29T08:18:23;95373.44;;;27.78;77.79
20119;BME280;10220;42.716;23.306;2022-07-29T08:20:49;95385.28;;;27.93;80.52
20119;BME280;10220;42.716;23.306;2022-07-29T08:23:15;95370.56;;;28.26;72.70
20119;BME280;10220;42.716;23.306;2022-07-29T08:25:41;95378.25;;;28.19;73.04
20119;BME280;10220;42.716;23.306;2022-07-29T08:28:07;95364.88;;;28.58;68.87
20119;BME280;10220;42.716;23.306;2022-07-29T08:30:33;95330.41;;;28.23;71.38
20119;BME280;10220;42.716;23.306;2022-07-29T08:32:58;95376.78;;;28.52;69.47
20119;BME280;10220;42.716;23.306;2022-07-29T08:35:25;95383.75;;;28.70;69.74
20119;BME280;10220;42.716;23.306;2022-07-29T08:37:51;95373.91;;;28.79;64.94
20119;BME280;10220;42.716;23.306;2022-07-29T08:40:17;95379.09;;;28.75;65.73
20119;BME280;10220;42.716;23.306;2022-07-29T08:42:42;95364.53;;;28.90;65.30
20119;BME280;10220;42.716;23.306;2022-07-29T08:45:08;95369.06;;;29.06;65.97
20119;BME280;10220;42.716;23.306;2022-07-29T08:47:33;95369.41;;;29.21;65.22
20119;BME280;10220;42.716;23.306;2022-07-29T08:50:03;95382.00;;;29.21;64.32
20119;BME280;10220;42.716;23.306;2022-07-29T08:52:32;95320.25;;;29.14;60.38
20119;BME280;10220;42.716;23.306;2022-07-29T08:55:01;95373.88;;;28.70;63.51
20119;BME280;10220;42.716;23.306;2022-07-29T08:57:27;95365.94;;;29.04;66.04
20119;BME280;10220;42.716;23.306;2022-07-29T08:59:54;95362.22;;;29.39;62.71
20119;BME280;10220;42.716;23.306;2022-07-29T09:02:21;95361.59;;;29.42;62.18
20119;BME280;10220;42.716;23.306;2022-07-29T09:04:47;95368.47;;;29.68;59.38
20119;BME280;10220;42.716;23.306;2022-07-29T09:07:18;95341.91;;;29.63;60.19
20119;BME280;10220;42.716;23.306;2022-07-29T09:09:44;95355.28;;;29.63;60.73
20119;BME280;10220;42.716;23.306;2022-07-29T09:12:10;95300.72;;;29.64;60.40
20119;BME280;10220;42.716;23.306;2022-07-29T09:14:37;95351.13;;;30.08;57.87
20119;BME280;10220;42.716;23.306;2022-07-29T09:17:03;95350.69;;;29.80;57.56
20119;BME280;10220;42.716;23.306;2022-07-29T09:19:31;95348.00;;;29.97;57.34
20119;BME280;10220;42.716;23.306;2022-07-29T09:21:58;95348.50;;;29.91;55.77
20119;BME280;10220;42.716;23.306;2022-07-29T09:24:43;95343.47;;;29.89;54.92
20119;BME280;10220;42.716;23.306;2022-07-29T09:27:23;95344.53;;;29.97;55.64
20119;BME280;10220;42.716;23.306;2022-07-29T09:30:10;95342.84;;;29.92;55.31
20119;BME280;10220;42.716;23.306;2022-07-29T09:32:59;95342.63;;;30.06;54.35
20119;BME280;10220;42.716;23.306;2022-07-29T09:35:27;95353.38;;;30.34;53.79
20119;BME280;10220;42.716;23.306;2022-07-29T09:37:53;95339.50;;;29.95;53.22
20119;BME280;10220;42.716;23.306;2022-07-29T09:40:24;95334.00;;;30.00;53.88
20119;BME280;10220;42.716;23.306;2022-07-29T09:42:50;95327.13;;;30.28;52.81
20119;BME280;10220;42.716;23.306;2022-07-29T09:45:32;95341.66;;;30.56;50.44
20119;BME280;10220;42.716;23.306;2022-07-29T09:47:59;95314.81;;;30.35;49.92
20119;BME280;10220;42.716;23.306;2022-07-29T09:50:41;95333.13;;;30.25;51.56
20119;BME280;10220;42.716;23.306;2022-07-29T09:53:07;95320.78;;;30.41;50.57
20119;BME280;10220;42.716;23.306;2022-07-29T09:55:49;95326.38;;;30.56;50.76
20119;BME280;10220;42.716;23.306;2022-07-29T09:58:19;95321.25;;;30.72;51.16
20119;BME280;10220;42.716;23.306;2022-07-29T10:00:46;95325.34;;;30.69;50.43
20119;BME280;10220;42.716;23.306;2022-07-29T10:03:13;95326.38;;;30.56;51.52
20119;BME280;10220;42.716;23.306;2022-07-29T10:05:39;95315.84;;;30.51;52.52
20119;BME280;10220;42.716;23.306;2022-07-29T10:08:06;95305.44;;;30.58;51.97
20119;BME280;10220;42.716;23.306;2022-07-29T10:10:39;95315.00;;;30.88;50.75
20119;BME280;10220;42.716;23.306;2022-07-29T10:13:09;95300.81;;;30.88;49.65
20119;BME280;10220;42.716;23.306;2022-07-29T10:15:39;95292.44;;;30.97;50.25
20119;BME280;10220;42.716;23.306;2022-07-29T10:18:07;95294.78;;;30.99;49.09
20119;BME280;10220;42.716;23.306;2022-07-29T10:20:34;95282.50;;;31.18;49.22
20119;BME280;10220;42.716;23.306;2022-07-29T10:22:59;95280.78;;;31.14;48.79
20119;BME280;10220;42.716;23.306;2022-07-29T10:25:25;95289.56;;;31.35;47.06
20119;BME280;10220;42.716;23.306;2022-07-29T10:27:51;95278.88;;;31.67;47.16
20119;BME280;10220;42.716;23.306;2022-07-29T10:30:18;95240.59;;;31.46;46.94
20119;BME280;10220;42.716;23.306;2022-07-29T10:46:54;95245.72;;;31.59;45.24
20119;BME280;10220;42.716;23.306;2022-07-29T10:49:21;95208.97;;;31.40;44.51
20119;BME280;10220;42.716;23.306;2022-07-29T10:54:36;95239.22;;;31.60;44.74
20119;BME280;10220;42.716;23.306;2022-07-29T10:59:48;95241.31;;;32.11;44.33
20119;BME280;10220;42.716;23.306;2022-07-29T11:05:18;95260.00;;;32.31;43.31
20119;BME280;10220;42.716;23.306;2022-07-29T11:10:38;95239.28;;;32.32;42.80
20119;BME280;10220;42.716;23.306;2022-07-29T11:13:03;95205.94;;;32.45;42.67
20119;BME280;10220;42.716;23.306;2022-07-29T11:15:52;95230.00;;;33.04;41.33
20119;BME280;10220;42.716;23.306;2022-07-29T11:18:17;95217.81;;;32.95;42.04
20119;BME280;10220;42.716;23.306;2022-07-29T11:20:47;95228.81;;;32.90;42.43
20119;BME280;10220;42.716;23.306;2022-07-29T11:23:29;95221.91;;;33.16;42.69
20119;BME280;10220;42.716;23.306;2022-07-29T11:31:41;95199.63;;;33.89;40.95
20119;BME280;10220;42.716;23.306;2022-07-29T11:34:28;95208.69;;;33.38;41.48
20119;BME280;10220;42.716;23.306;2022-07-29T11:39:30;95213.22;;;32.44;43.08
20119;BME280;10220;42.716;23.306;2022-07-29T11:47:40;95218.59;;;32.09;45.02
20119;BME280;10220;42.716;23.306;2022-07-29T11:50:08;95206.56;;;32.03;43.97
20119;BME280;10220;42.716;23.306;2022-07-29T11:52:36;95207.38;;;31.71;45.79
20119;BME280;10220;42.716;23.306;2022-07-29T11:55:10;95204.16;;;31.89;45.89
20119;BME280;10220;42.716;23.306;2022-07-29T11:57:37;95209.16;;;31.67;45.13
20119;BME280;10220;42.716;23.306;2022-07-29T12:00:05;95202.28;;;31.78;45.39
20119;BME280;10220;42.716;23.306;2022-07-29T12:02:42;95197.00;;;31.81;45.72
20119;BME280;10220;42.716;23.306;2022-07-29T12:05:09;95186.72;;;31.59;45.76
20119;BME280;10220;42.716;23.306;2022-07-29T12:07:36;95203.25;;;31.61;44.95
20119;BME280;10220;42.716;23.306;2022-07-29T12:10:03;95198.53;;;31.47;45.53
20119;BME280;10220;42.716;23.306;2022-07-29T12:12:29;95200.78;;;31.56;46.46
20119;BME280;10220;42.716;23.306;2022-07-29T12:14:54;95193.53;;;31.57;45.16
20119;BME280;10220;42.716;23.306;2022-07-29T12:19:55;95203.03;;;31.90;44.70
20119;BME280;10220;42.716;23.306;2022-07-29T12:22:32;95182.59;;;31.74;44.67
20119;BME280;10220;42.716;23.306;2022-07-29T12:25:03;95190.88;;;31.69;44.95
20119;BME280;10220;42.716;23.306;2022-07-29T12:27:30;95200.56;;;31.61;44.24
20119;BME280;10220;42.716;23.306;2022-07-29T12:30:00;95190.88;;;31.69;44.65
20119;BME280;10220;42.716;23.306;2022-07-29T12:32:40;95179.66;;;31.67;45.56
20119;BME280;10220;42.716;23.306;2022-07-29T12:35:14;95187.63;;;31.63;44.22
20119;BME280;10220;42.716;23.306;2022-07-29T12:37:41;95180.81;;;31.66;44.35
20119;BME280;10220;42.716;23.306;2022-07-29T12:40:09;95171.75;;;31.58;44.25
20119;BME280;10220;42.716;23.306;2022-07-29T12:42:35;95161.41;;;31.37;44.54
20119;BME280;10220;42.716;23.306;2022-07-29T12:45:03;95172.31;;;31.64;43.87
20119;BME280;10220;42.716;23.306;2022-07-29T12:47:29;95175.19;;;31.59;44.75
20119;BME280;10220;42.716;23.306;2022-07-29T12:52:34;95168.84;;;31.87;44.22
20119;BME280;10220;42.716;23.306;2022-07-29T12:55:00;95165.06;;;31.88;43.14
20119;BME280;10220;42.716;23.306;2022-07-29T12:57:26;95171.53;;;31.75;42.90
20119;BME280;10220;42.716;23.306;2022-07-29T13:00:07;95143.38;;;31.69;43.10
20119;BME280;10220;42.716;23.306;2022-07-29T13:02:36;95138.44;;;31.48;44.04
20119;BME280;10220;42.716;23.306;2022-07-29T13:05:04;95136.94;;;31.26;44.36
20119;BME280;10220;42.716;23.306;2022-07-29T13:07:33;95141.53;;;31.26;44.81
20119;BME280;10220;42.716;23.306;2022-07-29T13:12:36;95105.53;;;31.03;44.10
20119;BME280;10220;42.716;23.306;2022-07-29T13:15:14;95146.59;;;31.51;43.56
20119;BME280;10220;42.716;23.306;2022-07-29T13:17:43;95133.88;;;31.60;43.35
20119;BME280;10220;42.716;23.306;2022-07-29T13:20:10;95146.72;;;31.66;43.55
20119;BME280;10220;42.716;23.306;2022-07-29T13:22:41;95138.00;;;31.57;44.22
20119;BME280;10220;42.716;23.306;2022-07-29T13:25:08;95143.59;;;31.52;43.63
20119;BME280;10220;42.716;23.306;2022-07-29T13:27:36;95131.53;;;31.47;44.36
20119;BME280;10220;42.716;23.306;2022-07-29T13:30:04;95133.75;;;31.56;43.63
20119;BME280;10220;42.716;23.306;2022-07-29T13:32:30;95121.56;;;31.71;43.58
20119;BME280;10220;42.716;23.306;2022-07-29T13:34:57;95129.19;;;31.57;43.22
20119;BME280;10220;42.716;23.306;2022-07-29T13:37:23;95126.44;;;31.45;44.32
20119;BME280;10220;42.716;23.306;2022-07-29T13:39:48;95114.78;;;31.61;43.53
20119;BME280;10220;42.716;23.306;2022-07-29T13:42:14;95121.47;;;31.67;44.28
20119;BME280;10220;42.716;23.306;2022-07-29T13:44:40;95106.72;;;31.73;44.48
20119;BME280;10220;42.716;23.306;2022-07-29T13:47:06;95096.56;;;31.55;42.95
20119;BME280;10220;42.716;23.306;2022-07-29T13:49:33;95112.78;;;31.47;43.76